createdAt,value
2023-04-19T00:01:30.375Z,19.70
2023-04-19T00:03:58.503Z,25.27
2023-04-19T00:06:26.252Z,25.57
2023-04-19T00:08:53.037Z,24.63
2023-04-19T00:11:20.082Z,24.00
2023-04-19T00:13:46.853Z,20.13
2023-04-19T00:16:13.652Z,22.60
2023-04-19T00:18:40.716Z,22.03
2023-04-19T00:21:07.959Z,21.53
2023-04-19T00:23:35.706Z,21.60
2023-04-19T00:26:05.704Z,20.87
2023-04-19T00:28:34.049Z,24.73
2023-04-19T00:31:00.832Z,20.73
2023-04-19T00:33:27.674Z,22.63
2023-04-19T00:35:54.511Z,22.93
2023-04-19T00:38:21.240Z,28.23
2023-04-19T00:40:48.019Z,25.27
2023-04-19T00:43:19.709Z,26.53
2023-04-19T00:45:48.070Z,21.57
2023-04-19T00:48:15.642Z,20.07
2023-04-19T00:50:44.736Z,21.00
2023-04-19T00:53:11.746Z,20.87
2023-04-19T00:55:39.503Z,27.23
2023-04-19T00:58:07.610Z,22.23
2023-04-19T01:00:34.800Z,23.90
2023-04-19T01:03:01.782Z,20.60
2023-04-19T01:05:28.806Z,21.77
2023-04-19T01:07:55.552Z,19.73
2023-04-19T01:10:22.422Z,23.30
2023-04-19T01:12:49.151Z,21.17
2023-04-19T01:15:16.013Z,22.63
2023-04-19T01:17:42.914Z,24.93
2023-04-19T01:20:10.695Z,26.53
2023-04-19T01:22:40.468Z,29.43
2023-04-19T01:25:07.768Z,19.60
2023-04-19T01:27:35.456Z,22.23
2023-04-19T01:30:04.590Z,27.30
2023-04-19T01:32:31.522Z,24.40
2023-04-19T01:34:58.491Z,20.97
2023-04-19T01:37:25.276Z,26.27
2023-04-19T01:39:52.124Z,21.77
2023-04-19T01:42:18.904Z,21.40
2023-04-19T01:44:45.861Z,28.20
2023-04-19T01:47:12.616Z,23.70
2023-04-19T01:49:39.475Z,24.07
2023-04-19T01:52:06.362Z,22.97
2023-04-19T01:54:33.241Z,27.77
2023-04-19T01:57:00.212Z,25.30
2023-04-19T01:59:27.773Z,27.03
2023-04-19T02:01:54.794Z,23.20
2023-04-19T02:04:24.405Z,28.03
2023-04-19T02:06:51.190Z,31.17
2023-04-19T02:09:17.968Z,25.17
2023-04-19T02:11:44.928Z,26.57
2023-04-19T02:14:11.886Z,26.83
2023-04-19T02:16:38.644Z,32.90
2023-04-19T02:19:05.483Z,28.13
2023-04-19T02:21:32.221Z,24.70
2023-04-19T02:23:59.190Z,22.23
2023-04-19T02:26:25.940Z,30.87
2023-04-19T02:28:53.263Z,29.13
2023-04-19T02:31:20.147Z,30.80
2023-04-19T02:33:47.049Z,34.17
2023-04-19T02:36:13.780Z,29.20
2023-04-19T02:38:40.744Z,26.70
2023-04-19T02:41:07.699Z,32.07
2023-04-19T02:43:34.638Z,30.20
2023-04-19T02:46:02.104Z,32.47
2023-04-19T02:48:29.072Z,30.33
2023-04-19T02:50:56.183Z,27.87
2023-04-19T02:53:23.037Z,31.43
2023-04-19T02:55:50.277Z,28.33
2023-04-19T02:58:16.977Z,32.77
2023-04-19T03:00:43.764Z,30.57
2023-04-19T03:03:10.728Z,35.23
2023-04-19T03:05:37.599Z,34.10
2023-04-19T03:08:04.698Z,34.77
2023-04-19T03:10:31.416Z,31.60
2023-04-19T03:12:58.371Z,41.20
2023-04-19T03:15:25.201Z,28.77
2023-04-19T03:17:51.957Z,40.77
2023-04-19T03:20:19.123Z,38.20
2023-04-19T03:22:46.062Z,32.20
2023-04-19T03:25:13.554Z,36.33
2023-04-19T03:27:40.514Z,36.07
2023-04-19T03:30:08.001Z,32.93
2023-04-19T03:32:34.834Z,29.80
2023-04-19T03:35:01.742Z,34.50
2023-04-19T03:37:28.471Z,36.53
2023-04-19T03:39:55.303Z,35.53
2023-04-19T03:42:22.081Z,35.77
2023-04-19T03:44:49.067Z,34.70
2023-04-19T03:47:15.905Z,41.53
2023-04-19T03:49:42.673Z,30.07
2023-04-19T03:52:09.394Z,35.73
2023-04-19T03:54:36.167Z,34.07
2023-04-19T03:57:02.886Z,34.43
2023-04-19T03:59:29.625Z,35.17
2023-04-19T04:01:56.406Z,37.53
2023-04-19T04:04:23.580Z,36.40
2023-04-19T04:06:50.540Z,35.57
2023-04-19T04:09:17.268Z,38.43
2023-04-19T04:11:43.993Z,39.20
2023-04-19T04:14:10.732Z,37.80
2023-04-19T04:16:37.597Z,34.93
2023-04-19T04:19:04.472Z,36.23
2023-04-19T04:21:31.162Z,40.07
2023-04-19T04:23:58.719Z,40.10
2023-04-19T04:26:25.506Z,38.50
2023-04-19T04:28:52.237Z,38.00
2023-04-19T04:31:19.041Z,39.23
2023-04-19T04:33:47.985Z,39.13
2023-04-19T04:36:15.374Z,44.13
2023-04-19T04:38:42.985Z,37.47
2023-04-19T04:41:12.078Z,44.80
2023-04-19T04:43:39.676Z,43.73
2023-04-19T04:46:06.501Z,39.97
2023-04-19T04:48:33.586Z,42.80
2023-04-19T04:51:00.327Z,39.97
2023-04-19T04:53:27.642Z,45.77
2023-04-19T04:55:54.873Z,46.90
2023-04-19T04:58:21.789Z,40.73
2023-04-19T05:00:49.139Z,44.70
2023-04-19T05:03:16.582Z,43.07
2023-04-19T05:05:44.978Z,40.53
2023-04-19T05:08:12.362Z,41.17
2023-04-19T05:10:39.321Z,39.27
2023-04-19T05:13:06.013Z,39.57
2023-04-19T05:15:32.831Z,40.30
2023-04-19T05:17:59.768Z,42.20
2023-04-19T05:20:26.713Z,40.60
2023-04-19T05:23:00.657Z,41.90
2023-04-19T05:25:27.823Z,44.73
2023-04-19T05:27:54.841Z,42.33
2023-04-19T05:30:21.732Z,40.70
2023-04-19T05:32:48.773Z,40.97
2023-04-19T05:35:15.609Z,35.87
2023-04-19T05:37:42.677Z,43.70
2023-04-19T05:40:10.321Z,41.53
2023-04-19T05:42:38.091Z,39.87
2023-04-19T05:45:06.743Z,43.30
2023-04-19T05:47:34.001Z,42.17
2023-04-19T05:50:00.827Z,40.53
2023-04-19T05:52:27.613Z,43.17
2023-04-19T05:54:55.305Z,40.90
2023-04-19T05:57:22.041Z,43.83
2023-04-19T05:59:48.896Z,44.60
2023-04-19T06:02:16.111Z,40.30
2023-04-19T06:04:43.434Z,39.63
2023-04-19T06:07:26.434Z,40.57
2023-04-19T06:09:57.451Z,37.73
2023-04-19T06:12:24.325Z,38.77
2023-04-19T06:14:51.969Z,38.83
2023-04-19T06:17:23.513Z,40.07
2023-04-19T06:19:51.253Z,41.97
2023-04-19T06:22:18.048Z,40.00
2023-04-19T06:24:46.081Z,35.60
2023-04-19T06:27:13.061Z,43.77
2023-04-19T06:29:39.813Z,40.83
2023-04-19T06:32:06.634Z,35.00
2023-04-19T06:34:33.419Z,39.93
2023-04-19T06:37:00.472Z,36.63
2023-04-19T06:39:27.789Z,38.10
2023-04-19T06:41:54.503Z,37.67
2023-04-19T06:44:21.505Z,38.40
2023-04-19T06:46:48.608Z,34.30
2023-04-19T06:49:15.578Z,37.37
2023-04-19T06:51:42.362Z,37.10
2023-04-19T06:54:09.104Z,32.07
2023-04-19T06:56:45.701Z,33.10
2023-04-19T06:59:20.421Z,32.93
2023-04-19T07:01:47.991Z,35.03
2023-04-19T07:04:16.046Z,36.13
2023-04-19T07:06:43.177Z,34.90
2023-04-19T07:09:09.884Z,34.83
2023-04-19T07:11:36.828Z,31.37
2023-04-19T07:14:03.915Z,35.73
2023-04-19T07:16:30.994Z,32.77
2023-04-19T07:18:57.975Z,35.97
2023-04-19T07:21:28.636Z,32.43
2023-04-19T07:23:55.517Z,32.47
2023-04-19T07:26:22.420Z,31.70
2023-04-19T07:28:49.595Z,32.53
2023-04-19T07:31:17.933Z,31.17
2023-04-19T07:33:45.179Z,28.07
2023-04-19T07:36:11.895Z,30.03
2023-04-19T07:38:38.757Z,32.53
2023-04-19T07:41:06.484Z,33.07
2023-04-19T07:43:33.626Z,31.53
2023-04-19T07:46:00.499Z,32.27
2023-04-19T07:48:27.514Z,30.60
2023-04-19T07:50:54.215Z,30.50
2023-04-19T07:53:21.034Z,30.47
2023-04-19T07:55:47.833Z,30.37
2023-04-19T07:58:14.925Z,30.13
2023-04-19T08:00:41.631Z,29.37
2023-04-19T08:03:08.571Z,32.20
2023-04-19T08:05:35.819Z,33.43
2023-04-19T08:08:03.057Z,29.50
2023-04-19T08:10:31.016Z,29.13
2023-04-19T08:13:05.250Z,28.43
2023-04-19T08:18:06.518Z,29.20
2023-04-19T08:20:33.732Z,33.40
2023-04-19T08:23:10.253Z,32.73
2023-04-19T08:25:45.457Z,30.50
2023-04-19T08:28:12.764Z,28.87
2023-04-19T08:30:40.854Z,29.20
2023-04-19T08:33:08.633Z,31.97
2023-04-19T08:35:39.334Z,27.37
2023-04-19T08:38:06.407Z,27.53
2023-04-19T08:40:33.654Z,28.67
2023-04-19T08:43:05.288Z,27.70
2023-04-19T08:45:32.853Z,28.80
2023-04-19T08:48:02.325Z,26.17
2023-04-19T08:50:35.895Z,26.87
2023-04-19T08:55:58.500Z,26.63
2023-04-19T09:01:05.093Z,25.33
2023-04-19T09:03:38.557Z,25.67
2023-04-19T09:06:14.594Z,27.47
2023-04-19T09:08:42.342Z,26.87
2023-04-19T09:11:09.295Z,27.37
2023-04-19T09:13:40.556Z,26.97
2023-04-19T09:16:24.154Z,27.93
2023-04-19T09:19:08.155Z,29.93
2023-04-19T09:21:42.621Z,28.13
2023-04-19T09:24:09.553Z,28.30
2023-04-19T09:26:37.246Z,27.97
2023-04-19T09:29:07.978Z,30.47
2023-04-19T09:34:17.260Z,30.33
2023-04-19T09:36:44.408Z,27.40
2023-04-19T09:39:12.039Z,25.70
2023-04-19T09:41:55.150Z,26.27
2023-04-19T09:44:53.111Z,26.17
2023-04-19T09:47:30.015Z,28.40
2023-04-19T09:50:21.863Z,27.23
2023-04-19T09:53:03.624Z,26.00
2023-04-19T09:55:38.329Z,25.07
2023-04-19T09:58:11.835Z,25.93
2023-04-19T10:00:47.858Z,22.40
2023-04-19T10:03:16.725Z,23.50
2023-04-19T10:05:45.277Z,22.83
2023-04-19T10:08:13.885Z,22.57
2023-04-19T10:10:42.887Z,24.30
2023-04-19T10:15:51.324Z,26.33
2023-04-19T10:18:22.689Z,22.63
2023-04-19T10:20:57.098Z,23.80
2023-04-19T10:23:24.318Z,23.67
2023-04-19T10:25:57.819Z,23.30
2023-04-19T10:28:24.806Z,23.40
2023-04-19T10:31:01.020Z,22.57
2023-04-19T10:33:31.073Z,23.90
2023-04-19T10:36:02.515Z,27.07
2023-04-19T10:38:43.115Z,22.13
2023-04-19T10:41:16.931Z,24.13
2023-04-19T10:44:08.652Z,23.87
2023-04-19T10:46:36.321Z,25.40
2023-04-19T10:49:05.192Z,26.40
2023-04-19T10:51:36.787Z,30.50
2023-04-19T10:54:09.727Z,30.73
2023-04-19T10:56:36.408Z,30.83
2023-04-19T10:59:12.611Z,24.60
2023-04-19T11:02:02.562Z,22.93
2023-04-19T11:04:33.028Z,20.47
2023-04-19T11:07:07.403Z,24.63
2023-04-19T11:09:39.627Z,35.20
2023-04-19T11:12:08.889Z,26.60
2023-04-19T11:14:42.545Z,28.80
2023-04-19T11:17:26.001Z,24.47
2023-04-19T11:20:10.438Z,26.70
2023-04-19T11:22:41.580Z,19.63
2023-04-19T11:25:13.394Z,19.20
2023-04-19T11:27:45.244Z,24.27
2023-04-19T11:30:13.640Z,21.30
2023-04-19T11:32:54.299Z,17.47
2023-04-19T11:35:27.119Z,18.60
2023-04-19T11:37:55.302Z,20.87
2023-04-19T11:40:23.513Z,17.13
2023-04-19T11:43:01.029Z,21.17
2023-04-19T11:45:40.979Z,20.97
2023-04-19T11:48:17.948Z,17.40
2023-04-19T11:50:45.875Z,17.13
2023-04-19T11:53:23.446Z,20.57
2023-04-19T11:56:11.684Z,17.07
2023-04-19T11:58:44.564Z,16.43
2023-04-19T12:01:12.557Z,18.53
2023-04-19T12:03:52.942Z,18.77
2023-04-19T12:06:30.812Z,16.03
2023-04-19T12:08:57.688Z,16.13
2023-04-19T12:11:27.432Z,17.77
2023-04-19T12:14:10.404Z,15.80
2023-04-19T12:16:37.711Z,14.80
2023-04-19T12:19:15.436Z,14.67
2023-04-19T12:21:43.520Z,16.47
2023-04-19T12:24:10.809Z,16.00
2023-04-19T12:26:56.260Z,14.47
2023-04-19T12:29:23.485Z,13.00
2023-04-19T12:31:50.271Z,13.73
2023-04-19T12:34:17.045Z,15.37
2023-04-19T12:36:43.828Z,14.50
2023-04-19T12:39:10.583Z,14.17
2023-04-19T12:41:37.375Z,13.87
2023-04-19T12:44:04.215Z,16.30
2023-04-19T12:46:31.249Z,13.47
2023-04-19T12:48:58.152Z,12.80
2023-04-19T12:51:24.922Z,14.60
2023-04-19T12:53:52.710Z,14.70
2023-04-19T12:56:19.765Z,13.60
2023-04-19T12:58:46.722Z,12.80
2023-04-19T13:01:13.665Z,13.03
2023-04-19T13:03:40.701Z,11.10
2023-04-19T13:06:07.798Z,10.23
2023-04-19T13:08:44.738Z,11.53
2023-04-19T13:11:14.830Z,11.83
2023-04-19T13:13:41.743Z,14.53
2023-04-19T13:16:08.792Z,12.23
2023-04-19T13:18:35.653Z,14.17
2023-04-19T13:21:02.427Z,13.40
2023-04-19T13:23:29.219Z,13.60
2023-04-19T13:25:56.833Z,11.70
2023-04-19T13:28:23.998Z,13.27
2023-04-19T13:30:51.024Z,11.93
2023-04-19T13:33:17.856Z,11.93
2023-04-19T13:35:45.136Z,12.17
2023-04-19T13:38:12.099Z,10.00
2023-04-19T13:40:38.961Z,11.63
2023-04-19T13:43:05.724Z,11.60
2023-04-19T13:45:32.501Z,9.50
2023-04-19T13:47:59.395Z,7.70
2023-04-19T13:50:26.547Z,10.17
2023-04-19T13:52:53.397Z,8.37
2023-04-19T13:55:20.490Z,7.07
2023-04-19T13:57:47.546Z,7.53
2023-04-19T14:00:15.015Z,8.30
2023-04-19T14:02:42.262Z,7.93
2023-04-19T14:05:09.593Z,7.23
2023-04-19T14:07:39.371Z,8.10
2023-04-19T14:10:07.442Z,9.67
2023-04-19T14:12:34.159Z,7.33
2023-04-19T14:15:01.591Z,8.20
2023-04-19T14:17:28.805Z,7.90
2023-04-19T14:19:56.384Z,8.57
2023-04-19T14:22:23.203Z,6.37
2023-04-19T14:24:50.020Z,7.60
2023-04-19T14:27:17.039Z,8.27
2023-04-19T14:29:43.811Z,8.63
2023-04-19T14:34:43.715Z,8.10
2023-04-19T14:37:10.606Z,7.90
2023-04-19T14:39:37.376Z,6.30
2023-04-19T14:42:04.208Z,6.77
2023-04-19T14:44:30.968Z,6.30
2023-04-19T14:46:57.783Z,5.67
2023-04-19T14:49:26.993Z,7.53
2023-04-19T14:51:54.354Z,7.50
2023-04-19T14:54:21.163Z,6.07
2023-04-19T14:56:47.879Z,6.37
2023-04-19T14:59:14.907Z,7.47
2023-04-19T15:01:44.181Z,5.97
2023-04-19T15:04:11.452Z,5.97
2023-04-19T15:06:38.384Z,7.87
2023-04-19T15:09:05.310Z,7.00
2023-04-19T15:11:32.114Z,7.03
2023-04-19T15:13:58.878Z,6.67
2023-04-19T15:16:25.679Z,5.57
2023-04-19T15:18:53.119Z,6.27
2023-04-19T15:21:24.192Z,5.80
2023-04-19T15:23:51.515Z,6.90
2023-04-19T15:26:18.424Z,7.13
2023-04-19T15:28:45.385Z,8.47
2023-04-19T15:31:12.457Z,5.00
2023-04-19T15:33:39.298Z,6.33
2023-04-19T15:36:06.289Z,6.93
2023-04-19T15:38:33.243Z,8.67
2023-04-19T15:41:02.557Z,8.27
2023-04-19T15:43:29.676Z,7.47
2023-04-19T15:45:56.986Z,8.80
2023-04-19T15:48:23.904Z,6.73
2023-04-19T15:50:50.835Z,7.77
2023-04-19T15:53:17.665Z,6.57
2023-04-19T15:55:46.929Z,5.90
2023-04-19T15:58:13.834Z,4.97
2023-04-19T16:00:40.670Z,10.07
2023-04-19T16:03:09.820Z,7.53
2023-04-19T16:05:36.737Z,6.73
2023-04-19T16:08:04.599Z,6.13
2023-04-19T16:10:31.671Z,7.33
2023-04-19T16:12:58.556Z,9.27
2023-04-19T16:15:25.526Z,6.97
2023-04-19T16:17:52.531Z,7.93
2023-04-19T16:20:20.571Z,7.20
2023-04-19T16:22:48.029Z,9.13
2023-04-19T16:25:16.204Z,8.20
2023-04-19T16:27:44.539Z,7.20
2023-04-19T16:30:12.526Z,7.80
2023-04-19T16:32:40.609Z,5.60
2023-04-19T16:35:08.311Z,6.20
2023-04-19T16:37:35.637Z,5.60
2023-04-19T16:40:09.550Z,7.77
2023-04-19T16:42:38.157Z,8.27
2023-04-19T16:45:06.458Z,7.57
2023-04-19T16:47:34.494Z,6.50
2023-04-19T16:50:02.151Z,7.23
2023-04-19T16:52:31.104Z,6.13
2023-04-19T16:54:58.159Z,6.50
2023-04-19T16:57:24.944Z,6.60
2023-04-19T16:59:51.850Z,5.30
2023-04-19T17:02:18.772Z,7.33
2023-04-19T17:04:45.932Z,7.30
2023-04-19T17:07:12.909Z,6.97
2023-04-19T17:09:39.850Z,6.33
2023-04-19T17:12:07.113Z,7.33
2023-04-19T17:14:35.445Z,6.23
2023-04-19T17:17:02.759Z,9.90
2023-04-19T17:19:29.714Z,6.43
2023-04-19T17:21:56.529Z,8.23
2023-04-19T17:24:25.500Z,7.87
2023-04-19T17:26:52.312Z,7.10
2023-04-19T17:29:19.235Z,8.97
2023-04-19T17:31:46.146Z,8.10
2023-04-19T17:34:13.125Z,9.37
2023-04-19T17:36:41.279Z,11.47
2023-04-19T17:39:08.178Z,9.83
2023-04-19T17:41:34.945Z,10.27
2023-04-19T17:44:01.761Z,7.20
2023-04-19T17:46:28.614Z,8.30
2023-04-19T17:48:55.618Z,8.50
2023-04-19T17:51:22.522Z,9.17
2023-04-19T17:53:49.262Z,7.20
2023-04-19T17:56:16.054Z,7.73
2023-04-19T17:58:42.828Z,8.60
2023-04-19T18:01:10.450Z,7.10
2023-04-19T18:03:38.012Z,9.67
2023-04-19T18:06:06.138Z,9.67
2023-04-19T18:08:32.877Z,9.87
2023-04-19T18:10:59.670Z,7.37
2023-04-19T18:13:26.638Z,8.67
2023-04-19T18:15:53.467Z,6.87
2023-04-19T18:18:20.322Z,9.67
2023-04-19T18:20:47.300Z,6.83
2023-04-19T18:23:14.074Z,6.73
2023-04-19T18:25:40.851Z,5.77
2023-04-19T18:28:07.568Z,6.43
2023-04-19T18:30:34.638Z,6.80
2023-04-19T18:33:01.417Z,9.20
2023-04-19T18:35:28.186Z,6.47
2023-04-19T18:37:54.939Z,7.40
2023-04-19T18:40:21.723Z,7.07
2023-04-19T18:42:48.503Z,7.43
2023-04-19T18:45:15.230Z,8.17
2023-04-19T18:47:42.197Z,7.43
2023-04-19T18:50:09.956Z,5.87
2023-04-19T18:52:37.308Z,7.97
2023-04-19T18:55:06.045Z,6.90
2023-04-19T18:57:34.869Z,7.73
2023-04-19T19:00:04.802Z,6.50
2023-04-19T19:02:34.012Z,6.93
2023-04-19T19:05:02.229Z,7.07
2023-04-19T19:10:01.494Z,8.30
2023-04-19T19:12:29.289Z,7.20
2023-04-19T19:14:56.129Z,8.00
2023-04-19T19:17:24.265Z,7.63
2023-04-19T19:19:51.250Z,7.87
2023-04-19T19:22:25.575Z,5.83
2023-04-19T19:24:54.124Z,7.30
2023-04-19T19:27:21.352Z,5.90
2023-04-19T19:29:48.100Z,8.83
2023-04-19T19:32:14.872Z,7.90
2023-04-19T19:34:53.829Z,8.67
2023-04-19T19:37:23.236Z,4.63
2023-04-19T19:39:50.601Z,3.60
2023-04-19T19:42:19.283Z,7.90
2023-04-19T19:44:46.116Z,8.17
2023-04-19T19:47:13.354Z,7.37
2023-04-19T19:50:04.719Z,6.30
2023-04-19T19:52:28.760Z,6.23
2023-04-19T19:54:55.775Z,7.00
2023-04-19T19:59:56.228Z,5.27
2023-04-19T20:02:24.638Z,5.60
2023-04-19T20:04:51.837Z,8.83
2023-04-19T20:07:29.409Z,3.97
2023-04-19T20:10:09.171Z,5.87
2023-04-19T20:12:36.211Z,4.13
2023-04-19T20:15:03.871Z,7.30
2023-04-19T20:17:30.755Z,4.57
2023-04-19T20:19:58.265Z,4.83
2023-04-19T20:22:25.143Z,10.67
2023-04-19T20:24:52.858Z,5.77
2023-04-19T20:27:19.868Z,6.87
2023-04-19T20:29:46.626Z,5.97
2023-04-19T20:32:13.649Z,6.67
2023-04-19T20:34:40.584Z,5.07
2023-04-19T20:37:07.801Z,5.87
2023-04-19T20:39:34.697Z,6.67
2023-04-19T20:42:01.577Z,4.27
2023-04-19T20:44:30.615Z,7.40
2023-04-19T20:46:57.462Z,4.03
2023-04-19T20:49:24.335Z,3.93
2023-04-19T20:51:51.802Z,6.13
2023-04-19T20:54:19.774Z,5.33
2023-04-19T20:56:48.089Z,4.83
2023-04-19T20:59:15.194Z,5.33
2023-04-19T21:01:43.193Z,3.23
2023-04-19T21:04:10.852Z,4.20
2023-04-19T21:06:37.672Z,4.90
2023-04-19T21:09:04.486Z,4.27
2023-04-19T21:11:31.357Z,5.43
2023-04-19T21:13:58.222Z,5.13
2023-04-19T21:16:25.145Z,4.67
2023-04-19T21:18:51.982Z,5.03
2023-04-19T21:21:18.799Z,6.97
2023-04-19T21:23:45.559Z,5.50
2023-04-19T21:26:12.423Z,5.00
2023-04-19T21:28:39.345Z,5.90
2023-04-19T21:31:06.189Z,8.20
2023-04-19T21:33:32.961Z,6.40
2023-04-19T21:36:00.210Z,5.50
2023-04-19T21:38:27.022Z,7.53
2023-04-19T21:40:53.816Z,5.93
2023-04-19T21:43:20.698Z,8.90
2023-04-19T21:45:47.539Z,5.07
2023-04-19T21:48:14.361Z,7.40
2023-04-19T21:50:41.338Z,4.43
2023-04-19T21:53:08.108Z,9.00
2023-04-19T21:55:34.973Z,7.47
2023-04-19T21:58:02.109Z,9.43
2023-04-19T22:00:29.053Z,8.13
2023-04-19T22:02:56.210Z,6.53
2023-04-19T22:05:23.021Z,10.00
2023-04-19T22:07:49.995Z,9.40
2023-04-19T22:10:17.455Z,5.87
2023-04-19T22:12:55.486Z,9.20
2023-04-19T22:15:25.974Z,7.53
2023-04-19T22:17:52.964Z,8.37
2023-04-19T22:20:19.863Z,8.57
2023-04-19T22:22:46.687Z,9.20
2023-04-19T22:25:13.461Z,7.87
2023-04-19T22:27:40.227Z,7.03
2023-04-19T22:30:07.746Z,8.63
2023-04-19T22:32:34.602Z,8.73
2023-04-19T22:35:01.411Z,8.27
2023-04-19T22:37:28.163Z,8.67
2023-04-19T22:39:54.880Z,10.90
2023-04-19T22:42:21.873Z,10.33
2023-04-19T22:44:48.664Z,11.17
2023-04-19T22:47:15.904Z,9.70
2023-04-19T22:49:43.509Z,8.37
2023-04-19T22:52:11.557Z,9.27
2023-04-19T22:54:38.384Z,9.37
2023-04-19T22:57:05.130Z,10.30
2023-04-19T22:59:31.934Z,10.20
2023-04-19T23:01:58.729Z,8.80
2023-04-19T23:04:25.538Z,8.23
2023-04-19T23:06:52.592Z,11.20
2023-04-19T23:09:19.662Z,11.60
2023-04-19T23:11:47.542Z,9.03
2023-04-19T23:14:18.416Z,18.40
2023-04-19T23:16:46.144Z,10.20
2023-04-19T23:19:12.851Z,11.50
2023-04-19T23:21:39.615Z,9.47
2023-04-19T23:24:06.682Z,14.03
2023-04-19T23:26:33.397Z,12.07
2023-04-19T23:29:00.306Z,11.60
2023-04-19T23:31:27.167Z,10.90
2023-04-19T23:33:53.989Z,9.27
2023-04-19T23:36:21.000Z,8.93
2023-04-19T23:38:47.764Z,9.57
2023-04-19T23:41:14.504Z,10.50
2023-04-19T23:43:41.446Z,11.90
2023-04-19T23:46:08.285Z,11.13
2023-04-19T23:48:35.324Z,12.77
2023-04-19T23:51:02.033Z,11.97
2023-04-19T23:53:28.870Z,12.97
2023-04-19T23:55:55.680Z,14.70
2023-04-19T23:58:22.551Z,15.97
